Time;durP1;ratioP1;P1;durP2;ratioP2;P2;SDS_P1;SDS_P2;PMS_P1;PMS_P2;Temp;Humidity;BMP_temperature;BMP_pressure;BME280_temperature;BME280_humidity;BME280_pressure;Samples;Min_cycle;Max_cycle;Signal;HPM_P1;HPM_P2
2022/11/07 00:01:15;;;;;;;2.83;2.00;;;10.10;88.60;;;;;;7601294;19;20018;-69
2022/11/07 00:03:48;;;;;;;2.35;1.70;;;10.00;90.60;;;;;;7598446;19;20804;-70
2022/11/07 00:06:20;;;;;;;1.95;1.50;;;10.00;91.20;;;;;;7594159;19;20774;-70
2022/11/07 00:08:54;;;;;;;2.28;1.75;;;9.90;91.30;;;;;;7578557;19;20018;-69
2022/11/07 00:11:26;;;;;;;1.98;1.25;;;9.80;91.90;;;;;;7605065;19;20006;-69
2022/11/07 00:13:59;;;;;;;2.13;1.42;;;9.70;92.40;;;;;;7593212;19;20089;-70
2022/11/07 00:16:32;;;;;;;3.17;1.63;;;9.70;93.40;;;;;;7598358;19;20700;-69
2022/11/07 00:19:04;;;;;;;2.50;1.52;;;9.60;95.30;;;;;;7597836;19;20048;-70
2022/11/07 00:21:38;;;;;;;1.67;1.27;;;9.60;96.90;;;;;;7606286;19;20085;-70
2022/11/07 00:24:12;;;;;;;1.77;1.48;;;9.50;99.70;;;;;;7604681;19;20021;-70
2022/11/07 00:26:46;;;;;;;2.72;1.92;;;9.40;99.90;;;;;;7610090;19;20032;-69
2022/11/07 00:29:20;;;;;;;;;;;9.30;99.90;;;;;;7603579;19;20569;-70
2022/11/07 00:31:52;;;;;;;4.38;2.08;;;9.30;99.90;;;;;;7598769;19;19922;-69
2022/11/07 00:34:25;;;;;;;3.78;1.80;;;9.30;99.90;;;;;;7596572;19;20112;-70
2022/11/07 00:36:57;;;;;;;4.47;1.70;;;9.20;99.90;;;;;;7609506;19;20367;-69
2022/11/07 00:39:29;;;;;;;3.58;1.98;;;9.20;99.90;;;;;;7605194;19;20052;-69
2022/11/07 00:42:02;;;;;;;2.05;1.42;;;9.10;99.90;;;;;;7609343;19;20034;-69
2022/11/07 00:44:35;;;;;;;2.70;1.73;;;9.00;99.90;;;;;;6082928;19;10000463;-69
2022/11/07 00:47:07;;;;;;;3.67;1.48;;;9.00;99.90;;;;;;7600327;19;20070;-69
2022/11/07 00:49:40;;;;;;;3.20;1.57;;;9.00;99.90;;;;;;7611028;19;20014;-69
2022/11/07 00:52:12;;;;;;;2.10;1.63;;;9.00;99.90;;;;;;7602286;19;20117;-69
2022/11/07 00:54:44;;;;;;;3.47;2.05;;;9.00;99.90;;;;;;7601557;19;20501;-69
2022/11/07 00:57:17;;;;;;;2.60;1.80;;;8.90;99.90;;;;;;7603902;19;20022;-70
2022/11/07 00:59:49;;;;;;;2.88;1.70;;;9.00;99.90;;;;;;7609010;19;20014;-70
2022/11/07 01:02:22;;;;;;;2.90;1.67;;;9.10;99.90;;;;;;7599353;19;20016;-70
2022/11/07 01:05:09;;;;;;;6.30;2.85;;;9.10;99.90;;;;;;7597260;19;20035;-69
2022/11/07 01:07:42;;;;;;;3.53;2.13;;;9.20;99.90;;;;;;7580689;19;22683;-70
2022/11/07 01:10:14;;;;;;;2.00;1.50;;;9.20;99.90;;;;;;7582714;19;20554;-69
2022/11/07 01:12:47;;;;;;;4.13;2.25;;;9.30;99.00;;;;;;7574752;19;20006;-70
2022/11/07 01:15:19;;;;;;;5.97;3.75;;;9.60;97.50;;;;;;7596831;19;20014;-70
2022/11/07 01:17:52;;;;;;;3.25;2.08;;;9.70;97.60;;;;;;7594310;19;20316;-70
2022/11/07 01:20:24;;;;;;;1.92;1.30;;;9.80;97.70;;;;;;7597642;19;20143;-70
2022/11/07 01:22:57;;;;;;;1.40;1.10;;;9.80;97.20;;;;;;7589119;19;20018;-70
2022/11/07 01:25:29;;;;;;;1.30;1.10;;;10.00;96.90;;;;;;7591254;19;20018;-70
2022/11/07 01:28:02;;;;;;;1.95;1.33;;;10.10;96.90;;;;;;7593276;19;20017;-70
2022/11/07 01:30:42;;;;;;;2.20;1.08;;;10.10;97.30;;;;;;7590647;19;20085;-70
2022/11/07 01:33:15;;;;;;;3.28;1.25;;;10.20;97.00;;;;;;7598528;19;20097;-70
2022/11/07 01:35:48;;;;;;;1.88;1.00;;;10.20;97.40;;;;;;7599449;19;20014;-70
2022/11/07 01:38:20;;;;;;;2.08;1.30;;;10.20;97.90;;;;;;7590611;19;20644;-70
2022/11/07 01:43:56;;;;;;;1.60;0.98;;;10.30;97.60;;;;;;7608195;19;20018;-69
2022/11/07 01:46:30;;;;;;;4.18;1.30;;;10.40;98.00;;;;;;7588798;19;20018;-70
2022/11/07 01:49:12;;;;;;;2.55;1.23;;;10.30;98.70;;;;;;7600369;19;20018;-70
2022/11/07 01:51:59;;;;;;;4.00;1.70;;;10.30;98.90;;;;;;7607959;19;20006;-70
2022/11/07 01:54:40;;;;;;;2.80;1.30;;;10.30;99.00;;;;;;7587595;19;20379;-70
2022/11/07 01:57:19;;;;;;;3.08;1.50;;;10.30;99.30;;;;;;7595098;19;20412;-70
2022/11/07 01:59:54;;;;;;;3.10;1.60;;;10.20;99.70;;;;;;7601453;19;20034;-70
2022/11/07 02:02:27;;;;;;;4.20;1.80;;;10.20;99.90;;;;;;7578845;19;20010;-70
2022/11/07 02:05:03;;;;;;;12.38;4.63;;;10.10;99.90;;;;;;7583415;19;20510;-70
2022/11/07 02:07:37;;;;;;;37.97;13.05;;;10.10;99.90;;;;;;7577980;19;20018;-70
2022/11/07 02:10:09;;;;;;;;;;;10.10;99.90;;;;;;7586423;19;20045;-70
2022/11/07 02:12:43;;;;;;;38.05;12.38;;;10.00;99.90;;;;;;7593307;19;20496;-70
2022/11/07 02:15:15;;;;;;;40.45;14.50;;;9.90;99.90;;;;;;7586708;19;20019;-69
2022/11/07 02:17:48;;;;;;;44.28;15.63;;;9.90;99.90;;;;;;7597446;19;20015;-70
2022/11/07 02:20:21;;;;;;;23.02;7.80;;;9.80;99.90;;;;;;7587204;19;20566;-70
2022/11/07 02:23:07;;;;;;;21.48;8.98;;;9.80;99.90;;;;;;7591754;19;20011;-70
2022/11/07 02:25:40;;;;;;;5.32;2.50;;;9.80;99.90;;;;;;7606950;19;20029;-70
2022/11/07 02:28:15;;;;;;;2.97;1.50;;;9.80;99.90;;;;;;7611081;19;20022;-70
2022/11/07 02:30:47;;;;;;;1.75;1.20;;;9.80;99.90;;;;;;7586605;19;21096;-69
2022/11/07 02:33:22;;;;;;;2.30;1.50;;;9.80;99.90;;;;;;7600449;19;20010;-69
2022/11/07 02:35:55;;;;;;;3.17;1.17;;;9.70;99.90;;;;;;7596494;19;20007;-69
2022/11/07 02:38:34;;;;;;;1.60;1.10;;;9.80;99.90;;;;;;7589850;19;20086;-69
2022/11/07 02:41:13;;;;;;;4.10;2.50;;;9.80;99.90;;;;;;7595925;19;20078;-69
2022/11/07 02:43:51;;;;;;;2.45;1.40;;;9.80;99.90;;;;;;7610292;19;20010;-70
2022/11/07 02:46:26;;;;;;;2.00;1.42;;;9.80;99.90;;;;;;7599926;19;20007;-69
2022/11/07 02:49:00;;;;;;;3.22;1.48;;;9.80;99.90;;;;;;7595751;19;20011;-70
2022/11/07 02:51:32;;;;;;;2.47;1.33;;;9.80;99.90;;;;;;7609098;19;20060;-69
2022/11/07 02:54:05;;;;;;;5.00;1.67;;;9.80;99.90;;;;;;7606328;19;20863;-69
2022/11/07 02:56:37;;;;;;;3.72;1.40;;;9.80;99.90;;;;;;7603662;19;20053;-70
2022/11/07 02:59:10;;;;;;;1.75;1.30;;;9.80;99.90;;;;;;7597456;19;20018;-69
2022/11/07 03:01:42;;;;;;;1.90;1.35;;;9.80;99.90;;;;;;7604662;19;20568;-69
2022/11/07 03:04:15;;;;;;;1.65;1.17;;;9.80;99.90;;;;;;7597305;19;20018;-69
2022/11/07 03:06:47;;;;;;;2.50;1.20;;;9.80;99.90;;;;;;7593474;19;20034;-69
2022/11/07 03:09:19;;;;;;;1.73;1.20;;;9.80;99.90;;;;;;7602481;19;21392;-71
2022/11/07 03:11:52;;;;;;;1.70;1.27;;;9.90;99.90;;;;;;7612065;19;20079;-69
2022/11/07 03:14:25;;;;;;;1.63;1.20;;;9.90;99.90;;;;;;7600416;19;20116;-69
2022/11/07 03:16:57;;;;;;;3.15;1.17;;;9.90;99.90;;;;;;7618793;19;20028;-69
2022/11/07 03:19:30;;;;;;;2.40;1.27;;;9.90;99.90;;;;;;7601872;19;20862;-69
2022/11/07 03:22:02;;;;;;;2.80;1.60;;;10.00;99.90;;;;;;7608947;19;20010;-70
2022/11/07 03:24:35;;;;;;;2.67;1.40;;;10.00;99.90;;;;;;7591206;19;20859;-69
2022/11/07 03:27:07;;;;;;;3.17;1.27;;;10.10;99.90;;;;;;7606529;19;20019;-69
2022/11/07 03:29:40;;;;;;;1.98;1.17;;;10.10;99.90;;;;;;7591178;19;20056;-69
2022/11/07 03:32:12;;;;;;;6.28;1.38;;;10.20;99.90;;;;;;7589331;19;20019;-70
2022/11/07 03:34:45;;;;;;;2.83;1.42;;;10.20;99.90;;;;;;7589840;19;20493;-69
2022/11/07 03:37:18;;;;;;;2.95;1.40;;;10.20;99.90;;;;;;7600923;19;20093;-69
2022/11/07 03:39:50;;;;;;;1.95;1.17;;;10.30;99.90;;;;;;7597691;19;20025;-69
2022/11/07 03:42:23;;;;;;;1.98;1.20;;;10.30;99.90;;;;;;7606165;19;20055;-69
2022/11/07 03:44:55;;;;;;;3.00;1.58;;;10.30;99.90;;;;;;7603151;19;20399;-69
2022/11/07 03:47:27;;;;;;;5.45;2.55;;;10.20;99.90;;;;;;7577786;19;20022;-70
2022/11/07 03:50:00;;;;;;;9.52;4.30;;;10.00;99.90;;;;;;7597240;19;20494;-69
2022/11/07 03:52:33;;;;;;;11.52;5.20;;;9.90;99.90;;;;;;7606329;19;20089;-69
2022/11/07 03:55:06;;;;;;;6.47;2.63;;;9.80;99.90;;;;;;7602100;19;20085;-69
2022/11/07 03:57:39;;;;;;;4.72;2.30;;;9.70;99.90;;;;;;7581614;19;20021;-69
2022/11/07 04:00:13;;;;;;;4.40;2.42;;;9.70;99.90;;;;;;7602305;19;20090;-70
2022/11/07 04:02:45;;;;;;;;;;;9.70;99.90;;;;;;7604193;19;20078;-68
2022/11/07 04:05:18;;;;;;;2.10;1.45;;;9.60;99.90;;;;;;7582919;19;19922;-70
2022/11/07 04:07:50;;;;;;;3.58;1.88;;;9.60;99.90;;;;;;7603856;19;20010;-69
2022/11/07 04:10:23;;;;;;;2.25;1.55;;;9.60;99.90;;;;;;7609858;19;20397;-69
2022/11/07 04:18:44;;;;;;;2.42;1.60;;;9.40;99.90;;;;;;7585973;19;20571;-69
2022/11/07 04:21:16;;;;;;;6.60;1.50;;;9.30;99.90;;;;;;7589263;19;20014;-69
2022/11/07 04:23:49;;;;;;;7.72;1.48;;;9.20;99.90;;;;;;7592640;19;20051;-69
2022/11/07 04:29:12;;;;;;;5.38;1.45;;;9.00;99.90;;;;;;7605915;19;20024;-69
2022/11/07 04:31:45;;;;;;;1.88;1.50;;;9.00;99.90;;;;;;7604776;19;20756;-69
2022/11/07 04:34:17;;;;;;;2.45;1.67;;;9.00;99.90;;;;;;7597759;19;20075;-69
2022/11/07 04:36:50;;;;;;;2.60;1.40;;;9.10;99.90;;;;;;7608329;19;20494;-70
2022/11/07 04:39:22;;;;;;;1.60;1.35;;;9.00;99.90;;;;;;7592400;19;20025;-70
2022/11/07 04:41:55;;;;;;;3.88;1.40;;;9.00;99.90;;;;;;7606810;19;20013;-69
2022/11/07 04:44:27;;;;;;;2.63;1.67;;;8.80;99.90;;;;;;7603932;19;20013;-69
2022/11/07 04:47:00;;;;;;;6.88;1.60;;;8.70;99.90;;;;;;7575960;19;20022;-69
2022/11/07 04:49:33;;;;;;;2.17;1.42;;;8.70;99.90;;;;;;7575718;19;20029;-69
2022/11/07 04:52:05;;;;;;;4.70;1.55;;;8.60;99.90;;;;;;7592579;19;20723;-69
2022/11/07 04:54:38;;;;;;;3.30;1.48;;;8.50;99.90;;;;;;7587509;19;20034;-69
2022/11/07 04:57:10;;;;;;;3.28;1.58;;;8.50;99.90;;;;;;7595700;19;20021;-69
2022/11/07 04:59:43;;;;;;;2.63;1.60;;;8.40;99.90;;;;;;7596134;19;20130;-69
2022/11/07 05:02:15;;;;;;;3.03;1.88;;;8.40;99.90;;;;;;7566317;19;20014;-69
2022/11/07 05:04:48;;;;;;;2.45;1.70;;;8.30;99.90;;;;;;7595555;19;20013;-69
2022/11/07 05:07:20;;;;;;;4.88;2.28;;;8.20;99.90;;;;;;7565861;19;20018;-69
2022/11/07 05:09:53;;;;;;;3.03;2.00;;;8.20;99.90;;;;;;7583509;19;20021;-69
2022/11/07 05:12:26;;;;;;;2.95;1.77;;;8.20;99.90;;;;;;7593814;19;20491;-69
2022/11/07 05:14:58;;;;;;;5.27;1.93;;;8.10;99.90;;;;;;7599493;19;20017;-69
2022/11/07 05:17:31;;;;;;;3.15;1.58;;;8.00;99.90;;;;;;7588739;19;20303;-69
2022/11/07 05:20:04;;;;;;;4.88;2.25;;;8.00;99.90;;;;;;7590464;19;20103;-69
2022/11/07 05:25:28;;;;;;;15.50;2.47;;;7.80;99.90;;;;;;7596382;19;20018;-69
2022/11/07 05:28:00;;;;;;;3.35;2.10;;;7.70;99.90;;;;;;7580398;19;20023;-69
2022/11/07 05:30:36;;;;;;;4.30;2.00;;;7.70;99.90;;;;;;7592123;19;20017;-69
2022/11/07 05:33:10;;;;;;;5.30;2.38;;;7.70;99.90;;;;;;7583014;19;20046;-69
2022/11/07 05:35:45;;;;;;;5.85;2.50;;;7.70;99.90;;;;;;7600106;19;20018;-69
2022/11/07 05:38:17;;;;;;;6.20;2.17;;;7.70;99.90;;;;;;7581275;19;20727;-69
2022/11/07 05:40:49;;;;;;;6.22;2.10;;;7.80;99.90;;;;;;7559801;19;20025;-68
2022/11/07 05:43:23;;;;;;;3.30;1.90;;;7.80;99.90;;;;;;7586877;19;20458;-69
2022/11/07 05:46:00;;;;;;;4.05;2.50;;;7.80;99.90;;;;;;7592509;19;20030;-68
2022/11/07 05:48:32;;;;;;;6.10;2.22;;;7.80;99.90;;;;;;7583223;19;20621;-69
2022/11/07 05:51:07;;;;;;;4.03;2.47;;;7.80;99.90;;;;;;7569416;19;20415;-68
2022/11/07 05:53:40;;;;;;;3.00;2.38;;;8.00;99.90;;;;;;7539934;19;20011;-69
2022/11/07 05:56:12;;;;;;;4.22;2.38;;;8.10;99.90;;;;;;7570488;19;20021;-71
2022/11/07 05:58:45;;;;;;;3.92;2.47;;;8.20;99.90;;;;;;7557976;19;20010;-69
2022/11/07 06:01:17;;;;;;;4.35;2.47;;;8.10;99.90;;;;;;7589640;19;20014;-69
2022/11/07 06:03:50;;;;;;;2.78;2.47;;;8.00;99.90;;;;;;7567750;19;20015;-68
2022/11/07 06:06:23;;;;;;;5.47;2.40;;;7.90;99.90;;;;;;7578014;19;20017;-69
2022/11/07 06:08:55;;;;;;;8.48;2.63;;;7.80;99.90;;;;;;7602048;19;20623;-69
2022/11/07 06:11:29;;;;;;;4.38;2.28;;;7.90;99.90;;;;;;7602444;19;20018;-69
2022/11/07 06:14:02;;;;;;;7.20;4.30;;;8.00;99.90;;;;;;7570664;19;20021;-69
2022/11/07 06:16:35;;;;;;;6.50;3.33;;;8.10;99.90;;;;;;7591429;19;20078;-69
2022/11/07 06:19:07;;;;;;;5.10;3.15;;;8.10;99.90;;;;;;7595918;19;20042;-69
2022/11/07 06:21:40;;;;;;;6.95;3.30;;;8.00;99.90;;;;;;7596629;19;20014;-68
2022/11/07 06:24:12;;;;;;;5.00;2.90;;;8.00;99.90;;;;;;7594091;19;22150;-69
2022/11/07 06:26:46;;;;;;;3.80;2.28;;;7.90;99.90;;;;;;7592830;19;20017;-68
2022/11/07 06:29:19;;;;;;;3.90;2.28;;;7.90;99.90;;;;;;7593944;19;20018;-68
2022/11/07 06:31:51;;;;;;;4.78;2.75;;;8.00;99.90;;;;;;7593526;19;20121;-70
2022/11/07 06:34:24;;;;;;;3.17;2.10;;;8.00;99.90;;;;;;7615991;19;20023;-68
2022/11/07 06:36:57;;;;;;;3.37;2.17;;;8.10;99.90;;;;;;7617446;19;21193;-69
2022/11/07 06:39:34;;;;;;;4.72;1.98;;;8.10;99.90;;;;;;7625739;19;20733;-69
2022/11/07 06:42:06;;;;;;;3.47;2.47;;;8.20;99.90;;;;;;7623142;19;20048;-69
2022/11/07 06:44:39;;;;;;;5.30;2.60;;;8.20;99.90;;;;;;7624064;19;21195;-69
2022/11/07 06:47:12;;;;;;;5.37;2.47;;;8.30;99.90;;;;;;7616741;19;20491;-69
2022/11/07 06:49:44;;;;;;;8.32;3.55;;;8.30;99.90;;;;;;7623300;19;20078;-70
2022/11/07 06:52:17;;;;;;;8.13;2.78;;;8.40;99.90;;;;;;7613191;19;20622;-69
2022/11/07 06:54:49;;;;;;;6.25;3.00;;;8.40;99.90;;;;;;7610158;19;20022;-69
2022/11/07 06:57:22;;;;;;;6.68;2.25;;;8.40;99.90;;;;;;7622875;19;20031;-70
2022/11/07 06:59:54;;;;;;;3.22;1.70;;;8.50;99.90;;;;;;7614273;19;25808;-70
2022/11/07 07:02:27;;;;;;;3.45;2.25;;;8.50;99.90;;;;;;7611273;19;20014;-69
2022/11/07 07:05:20;;;;;;;4.43;2.13;;;8.50;99.90;;;;;;7603902;19;20051;-69
2022/11/07 07:07:54;;;;;;;3.72;2.20;;;8.50;99.90;;;;;;7610243;19;20018;-69
2022/11/07 07:10:27;;;;;;;6.00;2.58;;;8.40;99.90;;;;;;7621141;19;20401;-70
2022/11/07 07:13:00;;;;;;;3.88;2.00;;;8.50;99.90;;;;;;7621908;19;20017;-70
2022/11/07 07:15:33;;;;;;;4.93;1.75;;;8.70;99.90;;;;;;7607094;19;20061;-70
2022/11/07 07:18:21;;;;;;;3.13;1.55;;;8.80;99.90;;;;;;7601359;19;20018;-69
2022/11/07 07:21:05;;;;;;;4.00;2.05;;;9.00;99.90;;;;;;7619188;19;20018;-69
2022/11/07 07:23:38;;;;;;;2.85;1.60;;;9.00;99.90;;;;;;7611474;19;20432;-69
2022/11/07 07:26:14;;;;;;;3.83;1.95;;;9.10;99.90;;;;;;7621016;19;20208;-69
2022/11/07 07:28:47;;;;;;;2.83;1.77;;;9.20;99.90;;;;;;7618064;19;20014;-69
2022/11/07 07:31:24;;;;;;;3.00;1.60;;;9.20;99.90;;;;;;7619143;19;20818;-70
2022/11/07 07:33:57;;;;;;;3.17;1.60;;;9.30;99.90;;;;;;7608483;19;20140;-69
2022/11/07 07:36:31;;;;;;;6.95;1.45;;;9.40;99.90;;;;;;7608342;19;20055;-69
2022/11/07 07:39:04;;;;;;;2.72;1.60;;;9.40;99.90;;;;;;7602541;19;20014;-69
2022/11/07 07:41:37;;;;;;;2.38;1.80;;;9.50;99.90;;;;;;7617807;19;20078;-70
2022/11/07 07:44:11;;;;;;;3.70;1.90;;;9.60;99.90;;;;;;7609311;19;20026;-69
2022/11/07 07:46:44;;;;;;;4.22;1.83;;;9.60;99.90;;;;;;7611928;19;20443;-70
2022/11/07 07:49:16;;;;;;;5.60;2.17;;;9.80;99.90;;;;;;7610362;19;20108;-70
2022/11/07 07:51:49;;;;;;;5.40;2.00;;;9.80;99.90;;;;;;7605461;19;20020;-70
2022/11/07 07:54:21;;;;;;;4.95;1.85;;;10.00;99.90;;;;;;7608563;19;20717;-69
2022/11/07 07:56:53;;;;;;;6.35;1.80;;;10.20;99.90;;;;;;7610869;19;20007;-69
2022/11/07 07:59:26;;;;;;;3.60;1.77;;;10.40;99.90;;;;;;7611814;19;20018;-70
2022/11/07 08:01:59;;;;;;;5.43;1.80;;;10.50;99.90;;;;;;7602739;19;20002;-69
2022/11/07 08:04:32;;;;;;;8.25;1.88;;;10.60;99.90;;;;;;7595678;19;20014;-69
2022/11/07 08:07:04;;;;;;;2.75;1.40;;;10.80;99.50;;;;;;7608091;19;20102;-70
2022/11/07 08:09:37;;;;;;;3.65;1.80;;;10.90;99.80;;;;;;7613867;19;20015;-69
2022/11/07 08:12:10;;;;;;;4.35;2.13;;;11.10;98.40;;;;;;7613198;19;20021;-69
2022/11/07 08:14:42;;;;;;;2.10;1.45;;;11.20;98.10;;;;;;7613442;19;20022;-70
2022/11/07 08:17:15;;;;;;;1.83;1.35;;;11.30;95.90;;;;;;7613138;19;20014;-70
2022/11/07 08:19:47;;;;;;;1.92;0.82;;;11.40;96.10;;;;;;7618990;19;20482;-70
2022/11/07 08:22:20;;;;;;;1.38;1.08;;;11.70;93.80;;;;;;7615286;19;20098;-69
2022/11/07 08:24:52;;;;;;;2.05;1.10;;;11.70;94.40;;;;;;7612969;19;20023;-70
2022/11/07 08:27:25;;;;;;;1.33;0.90;;;11.80;93.10;;;;;;7608177;19;20022;-70
2022/11/07 08:29:58;;;;;;;3.92;1.13;;;11.90;91.70;;;;;;7619015;19;20403;-70
2022/11/07 08:32:30;;;;;;;4.50;1.10;;;12.00;92.60;;;;;;7616759;19;20031;-70
2022/11/07 08:35:03;;;;;;;1.65;1.00;;;12.10;92.90;;;;;;7612377;19;20049;-69
2022/11/07 08:37:36;;;;;;;4.20;1.42;;;12.10;92.30;;;;;;7614912;19;20022;-71
2022/11/07 08:40:09;;;;;;;2.90;1.17;;;12.10;92.40;;;;;;7611226;19;20628;-70
2022/11/07 08:42:42;;;;;;;4.22;1.30;;;12.20;93.00;;;;;;7612480;19;20026;-70
2022/11/07 08:45:14;;;;;;;1.42;1.10;;;12.20;92.60;;;;;;7609292;19;20523;-70
2022/11/07 08:47:47;;;;;;;3.97;1.42;;;12.30;92.80;;;;;;7611829;19;20039;-70
2022/11/07 08:50:19;;;;;;;1.55;1.23;;;12.40;92.40;;;;;;7617357;19;20090;-70
2022/11/07 08:52:52;;;;;;;1.92;1.10;;;12.40;92.00;;;;;;7611508;19;20717;-70
2022/11/07 08:55:30;;;;;;;3.22;1.10;;;12.60;90.30;;;;;;7616052;19;20018;-70
2022/11/07 08:58:05;;;;;;;1.35;1.13;;;12.70;89.90;;;;;;7607684;19;20060;-70
2022/11/07 09:00:37;;;;;;;3.63;1.02;;;12.70;90.20;;;;;;7609729;19;20751;-70
2022/11/07 09:03:13;;;;;;;2.42;1.10;;;12.70;88.90;;;;;;7592214;19;20014;-70
2022/11/07 09:06:06;;;;;;;2.67;1.10;;;12.80;87.30;;;;;;7608750;19;21127;-70
2022/11/07 09:08:39;;;;;;;1.03;0.80;;;12.80;87.90;;;;;;7608518;19;20022;-70
2022/11/07 09:11:14;;;;;;;1.92;1.10;;;12.90;88.70;;;;;;7612907;19;20035;-70
2022/11/07 09:13:47;;;;;;;2.00;0.90;;;13.00;88.50;;;;;;7613206;19;20034;-70
2022/11/07 09:16:21;;;;;;;1.70;1.17;;;13.00;87.40;;;;;;7615336;19;20018;-69
2022/11/07 09:18:53;;;;;;;2.67;1.00;;;13.10;88.90;;;;;;7617386;19;20015;-69
2022/11/07 09:21:26;;;;;;;5.67;1.20;;;13.10;88.80;;;;;;7600079;19;20010;-70
2022/11/07 09:23:58;;;;;;;1.63;0.90;;;13.10;88.60;;;;;;7607284;19;20014;-70
2022/11/07 09:26:31;;;;;;;3.30;1.17;;;13.20;87.30;;;;;;7612184;19;20570;-70
2022/11/07 09:29:03;;;;;;;2.20;1.20;;;13.20;86.20;;;;;;7612527;19;20026;-70
2022/11/07 09:31:36;;;;;;;2.67;0.90;;;13.30;87.60;;;;;;7609550;19;20765;-69
2022/11/07 09:34:09;;;;;;;1.67;0.90;;;13.40;85.90;;;;;;7617998;19;20649;-70
2022/11/07 09:36:41;;;;;;;2.55;0.90;;;13.40;85.80;;;;;;7619787;19;20055;-70
2022/11/07 09:39:14;;;;;;;1.33;0.90;;;13.40;86.90;;;;;;7612182;19;20070;-70
2022/11/07 09:42:05;;;;;;;2.00;1.20;;;13.50;85.50;;;;;;7617855;19;20010;-70
2022/11/07 09:44:58;;;;;;;2.05;1.08;;;13.60;85.70;;;;;;7613549;19;20018;-70
2022/11/07 09:47:38;;;;;;;2.80;1.40;;;13.60;87.40;;;;;;7611244;19;20112;-69
2022/11/07 09:50:18;;;;;;;2.13;1.10;;;13.80;84.90;;;;;;7611411;19;20130;-70
2022/11/07 09:52:53;;;;;;;1.98;0.85;;;13.80;84.20;;;;;;7609757;19;20018;-69
2022/11/07 09:55:37;;;;;;;2.22;0.93;;;14.00;85.80;;;;;;7615101;19;20015;-69
2022/11/07 09:58:27;;;;;;;;;;;14.10;82.70;;;;;;7611341;19;20059;-69
2022/11/07 10:01:04;;;;;;;1.70;0.98;;;14.10;83.70;;;;;;7604212;19;19918;-70
2022/11/07 10:03:38;;;;;;;2.08;1.27;;;14.20;83.80;;;;;;7616380;19;20019;-69
2022/11/07 10:06:44;;;;;;;4.32;1.40;;;14.30;83.90;;;;;;7614734;19;20479;-70
2022/11/07 10:09:52;;;;;;;2.03;1.20;;;14.40;84.20;;;;;;7608255;19;20018;-69
2022/11/07 10:12:43;;;;;;;1.98;1.02;;;14.50;83.80;;;;;;7608687;19;20019;-70
2022/11/07 10:15:43;;;;;;;3.10;1.10;;;14.60;82.40;;;;;;7609374;19;20089;-70
2022/11/07 10:18:39;;;;;;;1.58;0.80;;;14.70;82.20;;;;;;7607717;19;20019;-70
2022/11/07 10:21:33;;;;;;;5.43;0.90;;;14.80;82.30;;;;;;7609442;19;20531;-69
2022/11/07 10:24:25;;;;;;;2.95;1.35;;;14.90;79.50;;;;;;7615687;19;20022;-70
2022/11/07 10:26:59;;;;;;;2.83;1.02;;;14.90;79.20;;;;;;7618043;19;20010;-70
2022/11/07 10:29:53;;;;;;;4.43;1.15;;;14.90;80.00;;;;;;7613373;19;21136;-70
2022/11/07 10:32:57;;;;;;;2.13;0.93;;;14.90;79.00;;;;;;7610507;19;20010;-70
2022/11/07 10:35:32;;;;;;;2.85;0.82;;;14.90;79.30;;;;;;7593457;19;20089;-70
2022/11/07 10:38:26;;;;;;;2.22;0.82;;;15.00;79.50;;;;;;7609605;19;20130;-70
2022/11/07 10:40:59;;;;;;;2.35;1.25;;;15.00;80.30;;;;;;7602441;19;20022;-69
2022/11/07 10:43:36;;;;;;;7.77;1.03;;;15.00;80.70;;;;;;7620159;19;20356;-70
2022/11/07 10:46:21;;;;;;;3.28;0.90;;;15.10;79.20;;;;;;7616342;19;20034;-70
2022/11/07 10:48:56;;;;;;;3.15;1.42;;;15.20;80.90;;;;;;7618904;19;21030;-70
2022/11/07 10:51:49;;;;;;;2.97;1.42;;;15.20;80.00;;;;;;7613344;19;20003;-70
2022/11/07 10:54:26;;;;;;;2.08;0.90;;;15.00;77.50;;;;;;7614705;19;20006;-70
2022/11/07 10:57:08;;;;;;;7.82;1.00;;;15.00;78.40;;;;;;7617334;19;20876;-70
2022/11/07 10:59:58;;;;;;;3.95;1.20;;;15.10;78.30;;;;;;7618302;19;20839;-70
2022/11/07 11:02:49;;;;;;;2.72;1.00;;;15.20;76.30;;;;;;7616712;19;20617;-70
2022/11/07 11:05:27;;;;;;;4.25;1.00;;;15.30;77.90;;;;;;7613386;19;20011;-72
2022/11/07 11:08:13;;;;;;;4.93;1.38;;;15.50;75.50;;;;;;7616900;19;20043;-70
2022/11/07 11:10:47;;;;;;;3.97;0.80;;;15.70;77.80;;;;;;7618419;19;20097;-70
2022/11/07 11:13:27;;;;;;;1.85;1.05;;;16.30;73.60;;;;;;7620228;19;20014;-70
2022/11/07 11:16:28;;;;;;;2.15;1.08;;;17.00;72.40;;;;;;7620447;19;20022;-70
2022/11/07 11:19:01;;;;;;;2.65;0.90;;;17.00;72.00;;;;;;7620352;19;20015;-69
2022/11/07 11:21:42;;;;;;;1.70;1.25;;;17.40;71.00;;;;;;7623158;19;21044;-70
2022/11/07 11:24:39;;;;;;;3.63;1.00;;;17.40;69.10;;;;;;7621791;19;20015;-70
2022/11/07 11:27:21;;;;;;;3.60;0.82;;;17.10;70.30;;;;;;7613878;19;20489;-69
2022/11/07 11:30:14;;;;;;;2.17;0.90;;;17.60;69.70;;;;;;7619696;19;20038;-70
2022/11/07 11:33:04;;;;;;;2.30;1.02;;;18.30;67.00;;;;;;7616889;19;20078;-70
2022/11/07 11:35:48;;;;;;;1.65;0.90;;;18.60;65.20;;;;;;7608283;19;20015;-70
2022/11/07 11:38:26;;;;;;;;;;;17.90;64.90;;;;;;7618382;19;21187;-70
2022/11/07 11:41:06;;;;;;;2.95;1.27;;;18.20;66.90;;;;;;7579555;19;19938;-70
2022/11/07 11:43:54;;;;;;;1.88;1.35;;;19.40;64.60;;;;;;7599542;19;20022;-70
2022/11/07 11:46:29;;;;;;;2.67;1.42;;;20.00;60.80;;;;;;7592947;19;20109;-70
2022/11/07 11:49:23;;;;;;;4.20;1.75;;;20.20;61.30;;;;;;7594818;19;20018;-70
2022/11/07 11:52:05;;;;;;;3.20;1.10;;;19.70;60.90;;;;;;7611278;19;20015;-77
2022/11/07 11:54:38;;;;;;;2.00;0.82;;;19.00;62.30;;;;;;7602338;19;20022;-72
2022/11/07 11:57:16;;;;;;;1.02;0.85;;;17.90;64.80;;;;;;7609635;19;20409;-74
2022/11/07 12:00:17;;;;;;;2.47;0.93;;;17.30;65.80;;;;;;7614149;19;20014;-74
2022/11/07 12:03:08;;;;;;;3.65;1.10;;;17.20;68.40;;;;;;7599956;19;20089;-75
2022/11/07 12:05:53;;;;;;;2.97;0.90;;;16.90;68.20;;;;;;7610130;19;20007;-75
2022/11/07 12:08:49;;;;;;;1.10;0.75;;;16.80;70.00;;;;;;7598835;19;20516;-73
2022/11/07 12:11:42;;;;;;;1.77;0.90;;;16.70;71.00;;;;;;7607614;19;20094;-72
2022/11/07 12:14:40;;;;;;;2.38;0.88;;;16.90;69.10;;;;;;7611335;19;20757;-73
2022/11/07 12:17:40;;;;;;;1.85;0.93;;;16.90;68.00;;;;;;7610004;19;20048;-72
2022/11/07 12:20:17;;;;;;;3.17;1.55;;;16.80;70.00;;;;;;7600104;19;20060;-73
2022/11/07 12:22:52;;;;;;;2.35;1.38;;;16.80;68.30;;;;;;7603566;19;20073;-73
2022/11/07 12:25:30;;;;;;;2.40;1.30;;;17.20;66.60;;;;;;7611396;19;20010;-73
2022/11/07 12:28:29;;;;;;;4.85;1.67;;;17.20;67.20;;;;;;7599534;19;20522;-73
2022/11/07 12:31:36;;;;;;;2.80;1.05;;;16.80;69.10;;;;;;7613502;19;21183;-73
2022/11/07 12:34:37;;;;;;;1.60;0.93;;;16.50;68.20;;;;;;7606666;19;20022;-73
2022/11/07 12:37:45;;;;;;;3.08;1.00;;;16.50;68.10;;;;;;7597311;19;20018;-73
2022/11/07 12:40:28;;;;;;;1.77;0.88;;;16.80;67.60;;;;;;7581783;19;20064;-73
2022/11/07 12:43:03;;;;;;;1.38;0.82;;;17.20;66.90;;;;;;7594060;19;20017;-73
2022/11/07 12:45:45;;;;;;;4.60;0.93;;;17.40;65.80;;;;;;7605750;19;20806;-73
2022/11/07 12:48:57;;;;;;;2.92;0.80;;;17.20;66.10;;;;;;7586894;19;20018;-74
2022/11/07 12:52:03;;;;;;;1.23;0.93;;;16.90;66.40;;;;;;7614562;19;20833;-75
2022/11/07 12:54:51;;;;;;;5.18;1.10;;;16.90;66.70;;;;;;7615280;19;20094;-74
2022/11/07 12:57:31;;;;;;;2.67;1.25;;;17.00;67.90;;;;;;7618988;19;20010;-74
2022/11/07 13:00:14;;;;;;;2.92;1.02;;;16.80;67.10;;;;;;7620047;19;20030;-74
2022/11/07 13:03:24;;;;;;;3.75;1.10;;;16.50;68.20;;;;;;7610977;19;20015;-74
2022/11/07 13:06:34;;;;;;;1.60;0.90;;;16.20;69.40;;;;;;7595380;19;20026;-75
2022/11/07 13:09:13;;;;;;;3.60;0.98;;;16.10;70.60;;;;;;7582349;19;20011;-74
2022/11/07 13:12:01;;;;;;;3.88;1.02;;;15.90;69.80;;;;;;7602407;19;20018;-74
2022/11/07 13:14:38;;;;;;;1.95;0.90;;;15.90;70.70;;;;;;7595862;19;20045;-74
2022/11/07 13:17:16;;;;;;;3.28;0.98;;;16.00;71.60;;;;;;7588242;19;20543;-74
2022/11/07 13:20:21;;;;;;;5.47;1.00;;;16.30;71.80;;;;;;7571156;19;20022;-74
2022/11/07 13:22:58;;;;;;;2.83;0.80;;;16.50;69.70;;;;;;7592571;19;20014;-74
2022/11/07 13:25:33;;;;;;;2.50;0.90;;;16.50;70.00;;;;;;7589089;19;20836;-74
2022/11/07 13:28:25;;;;;;;1.98;0.80;;;16.20;68.90;;;;;;7594041;19;20019;-74
2022/11/07 13:30:58;;;;;;;2.90;0.90;;;16.10;69.90;;;;;;7594229;19;20028;-75
2022/11/07 13:33:37;;;;;;;2.78;1.00;;;16.00;71.00;;;;;;7590762;19;20551;-74
2022/11/07 13:36:14;;;;;;;3.08;1.15;;;15.90;71.90;;;;;;7575915;19;20023;-74
2022/11/07 13:38:51;;;;;;;5.40;1.02;;;16.00;73.90;;;;;;7583271;19;20018;-74
2022/11/07 13:41:24;;;;;;;5.50;1.80;;;16.20;72.20;;;;;;7580708;19;20017;-74
2022/11/07 13:44:14;;;;;;;2.03;0.85;;;16.30;71.20;;;;;;7585178;19;20118;-74
2022/11/07 13:47:01;;;;;;;2.63;1.00;;;16.30;68.90;;;;;;7593395;19;20334;-75
2022/11/07 13:49:42;;;;;;;1.08;0.75;;;16.70;69.40;;;;;;7586167;19;20006;-74
2022/11/07 13:52:39;;;;;;;1.55;0.80;;;16.70;67.00;;;;;;7588934;19;20034;-74
2022/11/07 13:55:22;;;;;;;2.65;0.90;;;16.80;69.00;;;;;;7589890;19;20090;-74
2022/11/07 13:58:01;;;;;;;0.95;0.75;;;16.60;69.00;;;;;;7595629;19;20014;-74
2022/11/07 14:00:33;;;;;;;3.05;0.90;;;16.60;69.40;;;;;;7584471;19;20086;-74